createdAt,value
2023-05-02T00:01:20.507Z,97.80
2023-05-02T00:03:47.319Z,97.60
2023-05-02T00:06:14.277Z,97.60
2023-05-02T00:08:41.022Z,98.00
2023-05-02T00:11:07.708Z,98.00
2023-05-02T00:13:34.408Z,97.70
2023-05-02T00:16:01.548Z,97.90
2023-05-02T00:18:28.192Z,98.00
2023-05-02T00:20:56.554Z,98.30
2023-05-02T00:23:23.911Z,98.30
2023-05-02T00:25:50.574Z,98.30
2023-05-02T00:28:17.619Z,98.30
2023-05-02T00:30:45.482Z,98.30
2023-05-02T00:33:14.313Z,98.30
2023-05-02T00:35:41.257Z,98.30
2023-05-02T00:38:07.916Z,98.30
2023-05-02T00:40:45.612Z,98.20
2023-05-02T00:43:12.449Z,98.10
2023-05-02T00:45:58.241Z,98.00
2023-05-02T00:48:28.208Z,98.00
2023-05-02T00:50:57.179Z,98.10
2023-05-02T00:53:23.839Z,98.10
2023-05-02T00:55:51.016Z,98.00
2023-05-02T00:58:19.110Z,97.70
2023-05-02T01:00:58.568Z,97.70
2023-05-02T01:03:55.301Z,98.30
2023-05-02T01:06:43.210Z,98.30
2023-05-02T01:09:35.968Z,98.30
2023-05-02T01:12:16.135Z,98.30
2023-05-02T01:14:46.836Z,98.30
2023-05-02T01:17:15.406Z,98.30
2023-05-02T01:19:45.716Z,98.30
2023-05-02T01:22:14.558Z,98.30
2023-05-02T01:24:50.143Z,98.30
2023-05-02T01:28:01.269Z,98.30
2023-05-02T01:30:30.835Z,98.30
2023-05-02T01:32:59.194Z,98.30
2023-05-02T01:35:28.182Z,98.30
2023-05-02T01:37:57.402Z,98.30
2023-05-02T01:40:26.365Z,98.30
2023-05-02T01:42:54.304Z,98.30
2023-05-02T01:45:22.702Z,98.30
2023-05-02T01:47:51.263Z,98.30
2023-05-02T01:50:23.202Z,98.30
2023-05-02T01:52:53.363Z,98.30
2023-05-02T01:55:20.760Z,98.30
2023-05-02T01:57:50.688Z,98.30
2023-05-02T02:00:19.243Z,98.30
2023-05-02T02:02:47.593Z,98.30
2023-05-02T02:05:15.980Z,98.30
2023-05-02T02:07:43.947Z,98.30
2023-05-02T02:10:11.151Z,98.30
2023-05-02T02:12:52.314Z,98.30
2023-05-02T02:15:28.602Z,98.30
2023-05-02T02:18:05.804Z,98.30
2023-05-02T02:20:32.881Z,98.30
2023-05-02T02:23:03.357Z,98.30
2023-05-02T02:25:30.590Z,98.30
2023-05-02T02:27:57.966Z,98.30
2023-05-02T02:30:24.651Z,98.30
2023-05-02T02:32:51.514Z,98.30
2023-05-02T02:35:18.556Z,98.30
2023-05-02T02:37:50.672Z,98.30
2023-05-02T02:40:31.500Z,98.30
2023-05-02T02:43:36.193Z,98.30
2023-05-02T02:46:11.850Z,98.30
2023-05-02T02:48:58.447Z,98.30
2023-05-02T02:52:10.380Z,98.30
2023-05-02T02:54:46.468Z,98.30
2023-05-02T02:57:37.561Z,98.30
2023-05-02T03:00:11.723Z,98.30
2023-05-02T03:02:41.763Z,98.30
2023-05-02T03:05:10.519Z,98.30
2023-05-02T03:07:37.192Z,98.30
2023-05-02T03:10:05.186Z,98.30
2023-05-02T03:12:34.238Z,98.30
2023-05-02T03:15:25.382Z,98.30
2023-05-02T03:17:52.325Z,98.30
2023-05-02T03:20:19.569Z,98.30
2023-05-02T03:22:46.374Z,98.30
2023-05-02T03:25:13.151Z,98.30
2023-05-02T03:27:44.204Z,98.30
2023-05-02T03:30:12.091Z,98.30
2023-05-02T03:32:38.807Z,98.30
2023-05-02T03:35:06.183Z,98.30
2023-05-02T03:37:38.097Z,98.30
2023-05-02T03:40:05.545Z,98.30
2023-05-02T03:42:39.875Z,98.30
2023-05-02T03:45:11.198Z,98.30
2023-05-02T03:47:38.028Z,98.30
2023-05-02T03:50:05.122Z,98.30
2023-05-02T03:52:33.962Z,98.30
2023-05-02T03:55:01.979Z,98.30
2023-05-02T03:57:32.813Z,98.30
2023-05-02T04:00:00.711Z,98.30
2023-05-02T04:02:38.504Z,98.30
2023-05-02T04:05:08.622Z,98.30
2023-05-02T04:07:36.342Z,98.30
2023-05-02T04:10:06.910Z,98.30
2023-05-02T04:12:38.903Z,98.30
2023-05-02T04:15:06.404Z,98.30
2023-05-02T04:17:33.098Z,98.30
2023-05-02T04:20:02.373Z,98.30
2023-05-02T04:22:33.040Z,98.30
2023-05-02T04:25:03.368Z,98.30
2023-05-02T04:27:30.945Z,98.30
2023-05-02T04:29:58.566Z,98.30
2023-05-02T04:32:25.567Z,98.30
2023-05-02T04:34:53.239Z,98.30
2023-05-02T04:37:21.299Z,98.30
2023-05-02T04:39:49.702Z,98.30
2023-05-02T04:42:19.983Z,98.30
2023-05-02T04:45:06.822Z,98.30
2023-05-02T04:47:33.605Z,98.30
2023-05-02T04:50:00.624Z,98.30
2023-05-02T04:52:27.582Z,98.30
2023-05-02T04:54:54.613Z,98.30
2023-05-02T04:57:22.651Z,98.30
2023-05-02T05:00:01.353Z,98.30
2023-05-02T05:02:34.209Z,98.30
2023-05-02T05:05:02.472Z,98.30
2023-05-02T05:07:29.151Z,98.30
2023-05-02T05:09:55.942Z,98.30
2023-05-02T05:12:25.542Z,98.30
2023-05-02T05:14:53.694Z,98.30
2023-05-02T05:17:22.925Z,98.30
2023-05-02T05:19:49.657Z,98.30
2023-05-02T05:22:16.395Z,98.30
2023-05-02T05:24:43.149Z,98.30
2023-05-02T05:27:11.229Z,98.30
2023-05-02T05:29:37.908Z,98.30
2023-05-02T05:32:06.132Z,98.30
2023-05-02T05:34:33.764Z,98.30
2023-05-02T05:37:01.478Z,98.30
2023-05-02T05:39:28.376Z,98.30
2023-05-02T05:41:57.479Z,98.30
2023-05-02T05:44:25.409Z,98.30
2023-05-02T05:46:52.133Z,98.30
2023-05-02T05:49:22.210Z,98.30
2023-05-02T05:51:49.219Z,98.30
2023-05-02T05:54:18.762Z,98.30
2023-05-02T05:56:46.060Z,98.30
2023-05-02T05:59:16.468Z,98.30
2023-05-02T06:01:43.121Z,98.30
2023-05-02T06:04:10.902Z,98.30
2023-05-02T06:06:41.269Z,98.30
2023-05-02T06:09:08.086Z,98.30
2023-05-02T06:11:37.990Z,98.30
2023-05-02T06:14:04.758Z,98.30
2023-05-02T06:16:31.535Z,98.30
2023-05-02T06:18:58.258Z,98.30
2023-05-02T06:21:25.185Z,98.30
2023-05-02T06:23:52.690Z,98.30
2023-05-02T06:26:19.376Z,98.30
2023-05-02T06:28:46.247Z,98.30
2023-05-02T06:31:12.918Z,98.30
2023-05-02T06:33:39.647Z,98.30
2023-05-02T06:36:06.443Z,98.30
2023-05-02T06:38:33.176Z,98.30
2023-05-02T06:40:59.955Z,98.30
2023-05-02T06:43:26.771Z,98.30
2023-05-02T06:45:57.705Z,98.30
2023-05-02T06:48:25.000Z,98.30
2023-05-02T06:51:00.511Z,98.30
2023-05-02T06:53:27.166Z,98.30
2023-05-02T06:55:53.846Z,98.30
2023-05-02T06:58:20.517Z,98.30
2023-05-02T07:00:48.701Z,98.30
2023-05-02T07:03:15.547Z,98.30
2023-05-02T07:05:42.335Z,98.30
2023-05-02T07:08:10.231Z,98.30
2023-05-02T07:10:37.254Z,98.30
2023-05-02T07:13:03.922Z,98.30
2023-05-02T07:15:30.651Z,98.30
2023-05-02T07:17:57.336Z,98.30
2023-05-02T07:20:24.149Z,98.30
2023-05-02T07:22:51.111Z,98.30
2023-05-02T07:25:17.838Z,98.30
2023-05-02T07:27:44.529Z,98.30
2023-05-02T07:30:11.721Z,98.30
2023-05-02T07:32:38.406Z,98.30
2023-05-02T07:35:05.526Z,98.20
2023-05-02T07:37:34.495Z,97.80
2023-05-02T07:40:02.298Z,97.60
2023-05-02T07:42:30.655Z,97.60
2023-05-02T07:44:57.821Z,96.90
2023-05-02T07:47:24.533Z,96.60
2023-05-02T07:49:52.273Z,96.40
2023-05-02T07:52:20.233Z,96.20
2023-05-02T07:54:49.621Z,95.80
2023-05-02T07:57:16.637Z,95.70
2023-05-02T07:59:43.358Z,95.40
2023-05-02T08:02:11.231Z,95.60
2023-05-02T08:04:38.033Z,94.90
2023-05-02T08:07:04.755Z,94.30
2023-05-02T08:09:31.408Z,94.00
2023-05-02T08:11:58.182Z,93.90
2023-05-02T08:14:24.823Z,93.80
2023-05-02T08:16:51.993Z,93.50
2023-05-02T08:19:18.745Z,93.40
2023-05-02T08:21:45.467Z,93.40
2023-05-02T08:24:12.117Z,93.20
2023-05-02T08:26:38.789Z,92.50
2023-05-02T08:29:05.578Z,92.30
2023-05-02T08:31:32.366Z,91.50
2023-05-02T08:33:59.078Z,90.50
2023-05-02T08:36:28.159Z,89.40
2023-05-02T08:38:54.773Z,89.40
2023-05-02T08:41:22.657Z,89.00
2023-05-02T08:43:49.691Z,87.60
2023-05-02T08:46:17.797Z,86.40
2023-05-02T08:48:48.037Z,86.30
2023-05-02T08:51:16.960Z,85.80
2023-05-02T08:53:44.502Z,86.40
2023-05-02T08:56:12.837Z,86.30
2023-05-02T08:58:40.851Z,85.70
2023-05-02T09:01:16.327Z,86.10
2023-05-02T09:03:47.933Z,85.80
2023-05-02T09:06:22.175Z,85.60
2023-05-02T09:08:52.316Z,85.40
2023-05-02T09:11:19.743Z,85.60
2023-05-02T09:13:51.661Z,85.20
2023-05-02T09:16:23.944Z,85.30
2023-05-02T09:18:52.291Z,84.90
2023-05-02T09:21:21.357Z,84.70
2023-05-02T09:23:49.208Z,84.00
2023-05-02T09:26:15.974Z,84.20
2023-05-02T09:28:45.160Z,84.80
2023-05-02T09:31:16.825Z,83.20
2023-05-02T09:33:46.320Z,83.20
2023-05-02T09:36:18.269Z,83.60
2023-05-02T09:38:47.075Z,84.00
2023-05-02T09:41:14.076Z,84.40
2023-05-02T09:43:41.469Z,84.30
2023-05-02T09:46:10.608Z,84.00
2023-05-02T09:48:53.703Z,83.50
2023-05-02T09:51:21.236Z,83.60
2023-05-02T09:53:48.589Z,82.80
2023-05-02T09:56:15.899Z,83.20
2023-05-02T09:58:43.225Z,82.90
2023-05-02T10:01:16.723Z,82.40
2023-05-02T10:03:47.231Z,82.20
2023-05-02T10:06:16.954Z,82.10
2023-05-02T10:08:45.499Z,82.10
2023-05-02T10:11:13.114Z,82.40
2023-05-02T10:13:42.767Z,82.40
2023-05-02T10:16:13.126Z,81.90
2023-05-02T10:18:58.561Z,80.40
2023-05-02T10:21:27.796Z,80.60
2023-05-02T10:23:55.033Z,80.40
2023-05-02T10:26:23.505Z,79.80
2023-05-02T10:28:51.161Z,80.10
2023-05-02T10:31:18.719Z,80.20
2023-05-02T10:33:50.619Z,79.90
2023-05-02T10:36:23.596Z,79.00
2023-05-02T10:38:51.054Z,78.50
2023-05-02T10:41:22.715Z,79.20
2023-05-02T10:43:49.968Z,79.20
2023-05-02T10:46:43.408Z,79.60
2023-05-02T10:49:12.379Z,79.90
2023-05-02T10:51:41.313Z,79.50
2023-05-02T10:54:17.256Z,79.80
2023-05-02T10:57:08.793Z,81.20
2023-05-02T10:59:38.045Z,83.50
2023-05-02T11:02:23.799Z,85.10
2023-05-02T11:05:05.863Z,84.50
2023-05-02T11:07:34.489Z,86.60
2023-05-02T11:10:22.158Z,89.80
2023-05-02T11:12:57.067Z,90.70
2023-05-02T11:15:29.492Z,91.90
2023-05-02T11:18:07.800Z,93.30
2023-05-02T11:20:36.521Z,94.10
2023-05-02T11:23:15.926Z,93.50
2023-05-02T11:26:00.961Z,94.70
2023-05-02T11:28:36.795Z,95.80
2023-05-02T11:31:07.905Z,96.40
2023-05-02T11:33:34.559Z,95.10
2023-05-02T11:36:01.417Z,95.10
2023-05-02T11:38:38.126Z,95.00
2023-05-02T11:41:05.097Z,94.70
2023-05-02T11:43:32.554Z,93.00
2023-05-02T11:46:01.520Z,92.50
2023-05-02T11:48:29.029Z,89.10
2023-05-02T11:50:58.131Z,88.30
2023-05-02T11:53:31.430Z,86.50
2023-05-02T11:56:02.922Z,85.90
2023-05-02T11:58:32.868Z,85.00
2023-05-02T12:01:13.883Z,83.40
2023-05-02T12:03:41.423Z,83.20
2023-05-02T12:06:20.953Z,82.20
2023-05-02T12:08:48.973Z,81.90
2023-05-02T12:11:16.916Z,81.70
2023-05-02T12:13:46.254Z,80.80
2023-05-02T12:16:13.207Z,80.20
2023-05-02T12:18:40.135Z,79.50
2023-05-02T12:21:07.730Z,79.10
2023-05-02T12:23:35.946Z,79.00
2023-05-02T12:26:17.410Z,79.00
2023-05-02T12:28:52.125Z,78.80
2023-05-02T12:31:19.605Z,79.30
2023-05-02T12:33:50.671Z,79.00
2023-05-02T12:36:19.114Z,78.90
2023-05-02T12:38:52.911Z,78.40
2023-05-02T12:41:33.039Z,77.40
2023-05-02T12:44:01.214Z,76.80
2023-05-02T12:46:28.763Z,76.70
2023-05-02T12:49:22.458Z,75.80
2023-05-02T12:51:55.886Z,76.00
2023-05-02T12:54:22.752Z,75.20
2023-05-02T12:56:52.086Z,74.60
2023-05-02T12:59:30.690Z,76.00
2023-05-02T13:02:02.449Z,76.90
2023-05-02T13:04:36.725Z,76.50
2023-05-02T13:07:03.377Z,77.20
2023-05-02T13:09:30.029Z,76.80
2023-05-02T13:11:58.873Z,77.10
2023-05-02T13:14:25.920Z,77.30
2023-05-02T13:16:53.514Z,77.10
2023-05-02T13:19:20.748Z,77.10
2023-05-02T13:21:48.056Z,77.50
2023-05-02T13:24:14.994Z,78.00
2023-05-02T13:26:41.793Z,78.20
2023-05-02T13:29:11.551Z,78.70
2023-05-02T13:31:38.944Z,78.50
2023-05-02T13:34:06.016Z,77.70
2023-05-02T13:36:32.759Z,77.40
2023-05-02T13:38:59.434Z,77.80
2023-05-02T13:41:26.127Z,77.80
2023-05-02T13:43:53.851Z,77.50
2023-05-02T13:46:20.548Z,77.60
2023-05-02T13:48:47.298Z,78.20
2023-05-02T13:51:13.966Z,79.10
2023-05-02T13:53:40.679Z,78.60
2023-05-02T13:56:07.538Z,78.60
2023-05-02T13:58:34.399Z,78.30
2023-05-02T14:01:01.422Z,78.80
2023-05-02T14:03:28.271Z,79.10
2023-05-02T14:05:54.963Z,78.80
2023-05-02T14:08:21.595Z,78.40
2023-05-02T14:10:48.226Z,78.00
2023-05-02T14:13:14.877Z,77.00
2023-05-02T14:15:41.527Z,76.90
2023-05-02T14:18:08.251Z,75.70
2023-05-02T14:20:34.989Z,75.00
2023-05-02T14:23:01.755Z,74.90
2023-05-02T14:25:28.460Z,74.00
2023-05-02T14:27:55.233Z,74.30
2023-05-02T14:30:21.968Z,75.10
2023-05-02T14:32:48.654Z,75.20
2023-05-02T14:35:15.706Z,75.20
2023-05-02T14:37:44.979Z,74.40
2023-05-02T14:40:12.320Z,75.50
2023-05-02T14:42:38.967Z,74.40
2023-05-02T14:45:06.605Z,74.60
2023-05-02T14:47:33.403Z,74.70
2023-05-02T14:50:01.142Z,73.70
2023-05-02T14:52:27.859Z,73.40
2023-05-02T14:54:54.645Z,73.60
2023-05-02T14:57:21.436Z,74.40
2023-05-02T14:59:48.226Z,73.80
2023-05-02T15:02:14.927Z,73.40
2023-05-02T15:04:42.237Z,72.90
2023-05-02T15:07:09.727Z,73.60
2023-05-02T15:09:36.483Z,73.00
2023-05-02T15:12:03.270Z,73.70
2023-05-02T15:14:33.489Z,72.50
2023-05-02T15:17:02.449Z,71.90
2023-05-02T15:19:32.545Z,71.50
2023-05-02T15:22:02.410Z,71.70
2023-05-02T15:24:29.262Z,71.90
2023-05-02T15:26:56.670Z,71.30
2023-05-02T15:29:23.774Z,71.80
2023-05-02T15:31:54.554Z,70.50
2023-05-02T15:34:26.748Z,70.60
2023-05-02T15:36:57.936Z,70.60
2023-05-02T15:39:27.848Z,71.50
2023-05-02T15:41:54.782Z,71.20
2023-05-02T15:44:22.457Z,71.20
2023-05-02T15:46:49.357Z,70.70
2023-05-02T15:49:16.275Z,71.00
2023-05-02T15:51:43.688Z,69.70
2023-05-02T15:54:11.414Z,70.60
2023-05-02T15:56:41.839Z,71.30
2023-05-02T15:59:11.757Z,69.60
2023-05-02T16:01:39.086Z,69.20
2023-05-02T16:04:06.976Z,69.70
2023-05-02T16:06:34.262Z,69.70
2023-05-02T16:09:03.375Z,68.40
2023-05-02T16:11:30.906Z,68.60
2023-05-02T16:14:01.786Z,69.70
2023-05-02T16:16:29.107Z,70.00
2023-05-02T16:18:56.890Z,70.00
2023-05-02T16:21:23.988Z,70.00
2023-05-02T16:23:51.255Z,70.10
2023-05-02T16:26:18.008Z,70.60
2023-05-02T16:28:45.050Z,71.30
2023-05-02T16:31:14.344Z,71.00
2023-05-02T16:33:43.137Z,70.40
2023-05-02T16:36:10.861Z,71.40
2023-05-02T16:38:37.693Z,72.70
2023-05-02T16:41:07.115Z,73.90
2023-05-02T16:43:34.250Z,74.30
2023-05-02T16:46:06.116Z,74.70
2023-05-02T16:48:35.227Z,75.00
2023-05-02T16:51:04.235Z,75.00
2023-05-02T16:53:31.909Z,74.60
2023-05-02T16:56:00.067Z,74.70
2023-05-02T16:58:33.191Z,74.30
2023-05-02T17:01:04.094Z,74.20
2023-05-02T17:03:31.970Z,74.50
2023-05-02T17:06:03.406Z,73.90
2023-05-02T17:08:30.921Z,74.20
2023-05-02T17:11:01.726Z,74.70
2023-05-02T17:13:29.368Z,74.80
2023-05-02T17:15:56.177Z,74.80
2023-05-02T17:18:23.782Z,75.60
2023-05-02T17:20:54.887Z,76.00
2023-05-02T17:23:22.817Z,75.90
2023-05-02T17:25:50.990Z,76.20
2023-05-02T17:28:20.906Z,76.60
2023-05-02T17:30:48.661Z,76.50
2023-05-02T17:33:16.301Z,76.70
2023-05-02T17:35:48.418Z,77.00
2023-05-02T17:38:16.387Z,77.50
2023-05-02T17:40:44.065Z,77.80
2023-05-02T17:43:14.766Z,77.90
2023-05-02T17:45:42.036Z,77.90
2023-05-02T17:48:08.757Z,78.00
2023-05-02T17:50:39.707Z,77.80
2023-05-02T17:53:07.146Z,78.10
2023-05-02T17:55:37.736Z,78.10
2023-05-02T17:58:04.954Z,78.30
2023-05-02T18:00:31.873Z,78.70
2023-05-02T18:02:58.874Z,78.60
2023-05-02T18:05:26.746Z,78.90
2023-05-02T18:07:53.619Z,79.50
2023-05-02T18:10:20.438Z,79.20
2023-05-02T18:12:47.059Z,79.60
2023-05-02T18:15:13.962Z,79.90
2023-05-02T18:17:40.753Z,80.00
2023-05-02T18:20:09.822Z,79.60
2023-05-02T18:22:36.803Z,79.60
2023-05-02T18:25:04.418Z,80.40
2023-05-02T18:27:31.913Z,80.50
2023-05-02T18:29:58.629Z,80.50
2023-05-02T18:32:25.981Z,80.70
2023-05-02T18:34:52.814Z,80.60
2023-05-02T18:37:19.465Z,81.20
2023-05-02T18:39:46.185Z,81.50
2023-05-02T18:42:13.779Z,81.50
2023-05-02T18:44:40.993Z,81.40
2023-05-02T18:47:07.885Z,81.80
2023-05-02T18:49:34.529Z,81.50
2023-05-02T18:52:01.154Z,81.40
2023-05-02T18:54:28.702Z,81.40
2023-05-02T18:56:55.592Z,81.40
2023-05-02T18:59:22.239Z,81.50
2023-05-02T19:01:49.265Z,82.50
2023-05-02T19:04:16.458Z,83.10
2023-05-02T19:06:43.243Z,83.80
2023-05-02T19:09:09.989Z,84.00
2023-05-02T19:11:36.782Z,84.30
2023-05-02T19:14:03.724Z,84.80
2023-05-02T19:16:31.399Z,84.90
2023-05-02T19:18:58.259Z,85.20
2023-05-02T19:21:27.635Z,85.60
2023-05-02T19:23:56.371Z,85.40
2023-05-02T19:26:23.414Z,85.70
2023-05-02T19:28:50.147Z,86.20
2023-05-02T19:31:19.456Z,86.40
2023-05-02T19:33:51.722Z,86.80
2023-05-02T19:36:19.761Z,86.80
2023-05-02T19:38:58.097Z,86.80
2023-05-02T19:41:25.105Z,87.00
2023-05-02T19:43:52.427Z,86.80
2023-05-02T19:46:19.454Z,86.90
2023-05-02T19:48:46.194Z,87.00
2023-05-02T19:51:12.983Z,87.00
2023-05-02T19:53:39.632Z,86.90
2023-05-02T19:56:07.233Z,87.10
2023-05-02T19:58:34.369Z,87.40
2023-05-02T20:01:01.080Z,87.70
2023-05-02T20:03:27.995Z,88.10
2023-05-02T20:05:57.238Z,88.50
2023-05-02T20:08:27.383Z,88.50
2023-05-02T20:10:54.976Z,88.60
2023-05-02T20:13:21.788Z,88.80
2023-05-02T20:15:52.607Z,89.00
2023-05-02T20:18:20.102Z,88.90
2023-05-02T20:20:46.973Z,88.90
2023-05-02T20:23:14.264Z,89.20
2023-05-02T20:25:42.650Z,89.20
2023-05-02T20:28:09.880Z,88.90
2023-05-02T20:30:36.628Z,88.80
2023-05-02T20:33:14.112Z,89.30
2023-05-02T20:35:42.097Z,89.60
2023-05-02T20:38:08.730Z,90.20
2023-05-02T20:40:39.342Z,90.50
2023-05-02T20:43:06.487Z,90.30
2023-05-02T20:45:33.335Z,90.40
2023-05-02T20:48:00.076Z,90.70
2023-05-02T20:50:27.066Z,90.70
2023-05-02T20:52:54.363Z,90.60
2023-05-02T20:55:23.082Z,90.10
2023-05-02T20:57:52.722Z,89.90
2023-05-02T21:00:22.606Z,89.60
2023-05-02T21:02:49.733Z,89.80
2023-05-02T21:05:16.701Z,90.10
2023-05-02T21:07:44.602Z,90.20
2023-05-02T21:10:11.349Z,90.10
2023-05-02T21:12:38.598Z,90.40
2023-05-02T21:15:07.172Z,90.80
2023-05-02T21:17:34.015Z,91.00
2023-05-02T21:20:01.002Z,91.00
2023-05-02T21:22:28.133Z,91.30
2023-05-02T21:24:54.776Z,91.50
2023-05-02T21:27:22.782Z,91.70
2023-05-02T21:29:49.658Z,91.80
2023-05-02T21:32:16.286Z,91.50
2023-05-02T21:34:42.921Z,91.30
2023-05-02T21:37:09.611Z,91.40
2023-05-02T21:39:37.332Z,91.80
2023-05-02T21:42:04.961Z,91.90
2023-05-02T21:44:31.766Z,91.80
2023-05-02T21:46:58.470Z,91.60
2023-05-02T21:49:25.132Z,91.40
2023-05-02T21:51:51.755Z,90.80
2023-05-02T21:54:18.459Z,91.00
2023-05-02T21:56:45.167Z,91.20
2023-05-02T21:59:11.835Z,91.30
2023-05-02T22:01:38.491Z,91.30
2023-05-02T22:04:05.261Z,91.30
2023-05-02T22:06:32.741Z,91.40
2023-05-02T22:08:59.465Z,91.50
2023-05-02T22:11:28.421Z,91.60
2023-05-02T22:13:55.167Z,91.50
2023-05-02T22:16:21.952Z,91.70
2023-05-02T22:18:49.555Z,91.70
2023-05-02T22:21:16.317Z,91.70
2023-05-02T22:23:43.863Z,91.60
2023-05-02T22:26:10.666Z,91.80
2023-05-02T22:28:37.330Z,92.00
2023-05-02T22:31:04.051Z,92.30
2023-05-02T22:33:30.703Z,92.20
2023-05-02T22:35:57.432Z,92.10
2023-05-02T22:38:24.083Z,92.20
2023-05-02T22:40:50.744Z,92.40
2023-05-02T22:43:17.586Z,92.10
2023-05-02T22:45:44.593Z,92.30
2023-05-02T22:48:11.985Z,92.10
2023-05-02T22:50:38.703Z,92.40
2023-05-02T22:53:05.480Z,92.90
2023-05-02T22:55:32.169Z,93.20
2023-05-02T22:57:58.821Z,93.70
2023-05-02T23:00:25.455Z,93.60
2023-05-02T23:02:52.214Z,93.70
2023-05-02T23:05:19.440Z,93.60
2023-05-02T23:07:46.112Z,93.50
2023-05-02T23:10:12.790Z,93.50
2023-05-02T23:12:39.521Z,93.50
2023-05-02T23:15:07.427Z,93.60
2023-05-02T23:17:41.048Z,93.40
2023-05-02T23:20:12.093Z,93.00
2023-05-02T23:22:47.868Z,93.10
2023-05-02T23:25:15.231Z,92.80
2023-05-02T23:27:42.015Z,93.00
2023-05-02T23:30:09.188Z,92.90
2023-05-02T23:32:36.617Z,92.90
2023-05-02T23:35:05.331Z,93.00
2023-05-02T23:37:32.138Z,93.20
2023-05-02T23:40:00.393Z,92.80
2023-05-02T23:42:29.251Z,92.90
2023-05-02T23:44:57.622Z,92.90
2023-05-02T23:47:27.441Z,93.00
2023-05-02T23:49:54.277Z,93.00
2023-05-02T23:52:21.021Z,93.30
2023-05-02T23:54:47.732Z,93.70
2023-05-02T23:57:14.360Z,93.70
2023-05-02T23:59:41.030Z,93.60
